Weather observations for the past three days for
Bolinder Field-Tooele Valley Airport
Imperial (Metric)
Date Time (mdt) Wind (mph) Vis. (mi.) Weather Sky Cond. Temperature (ºF) Relative Humidity Wind Chill (°F) Heat Index (°F) Pressure Precipitation (in)
Air Dwpt 6 hour altimeter (in) sea level (mb) 1 hr 3 hr 6 hr
Max. Min.
04 18:55 S 22 G 31 10.00 Fair and Breezy CLR 87.8 32 13% 84 29.84 0.0
04 18:35 S 22 G 35 10.00 Fair and Breezy CLR 87.8 33.8 15% 84 29.84 0.0
04 18:15 S 26 G 33 10.00 Fair and Windy CLR 87.8 32 13% 84 29.84 0.0
04 17:55 S 21 G 39 10.00 Fair and Breezy CLR 89.6 32 91.4 84.4 13% 86 29.84 0.0
04 17:35 S 30 G 37 10.00 Fair and Windy CLR 89.6 30.2 12% 86 29.84 0.0
04 17:15 S 33 G 40 10.00 Fair and Windy CLR 89.6 30.2 12% 86 29.84 0.0
04 16:55 S 23 G 39 10.00 Fair and Breezy CLR 91.4 30.2 11% 87 29.85 0.0
04 16:35 S 31 G 38 10.00 Fair and Windy CLR 91.4 30.2 11% 87 29.85 0.0
04 16:15 S 30 G 39 10.00 Fair and Windy CLR 89.6 30.2 12% 86 29.85 0.0
04 15:55 S 28 G 39 10.00 Fair and Windy CLR 89.6 30.2 12% 86 29.86 0.0
04 15:35 S 29 G 38 10.00 Fair and Windy CLR 89.6 28.4 11% 86 29.87 0.0
04 15:15 S 25 G 38 10.00 Fair and Breezy CLR 89.6 28.4 11% 86 29.87 0.0
04 14:55 S 28 G 33 10.00 Fair and Windy CLR 87.8 30.2 13% 84 29.88 0.0
04 14:35 S 29 G 39 10.00 Fair and Windy CLR 87.8 30.2 13% 84 29.89 0.0
04 14:15 S 30 G 39 10.00 Fair and Windy CLR 87.8 28.4 12% 84 29.89 0.0
04 13:55 S 32 G 40 10.00 Fair and Windy CLR 87.8 28.4 12% 84 29.89 0.0
04 13:35 S 28 G 41 10.00 Fair and Windy CLR 86 28.4 12% 83 29.9 0.0
04 13:15 S 28 G 43 10.00 Fair and Windy CLR 86 28.4 12% 83 29.9 0.0
04 12:55 S 30 G 39 10.00 Fair and Windy CLR 86 28.4 12% 83 29.91 0.0
04 12:35 S 25 G 43 10.00 Fair and Breezy CLR 86 28.4 12% 83 29.92 0.0
04 12:15 S 30 G 39 10.00 Fair and Windy CLR 84.2 30.2 14% 81 29.93 0.0
04 11:55 S 30 G 37 10.00 Fair and Windy CLR 84.2 30.2 84.9 72.1 14% 81 29.93 0.0
04 11:35 S 31 G 39 10.00 Fair and Windy CLR 84.2 32 15% 81 29.93 0.0
04 11:15 S 30 G 39 10.00 Fair and Windy CLR 84.2 30.2 14% 81 29.93 0.0
04 10:55 S 30 G 40 10.00 Fair and Windy CLR 82.4 28.4 14% 80 29.93 0.0
04 10:35 S 28 G 39 10.00 Fair and Windy CLR 82.4 26.6 13% 80 29.93 0.0
04 10:15 S 29 G 37 10.00 Fair and Windy CLR 82.4 24.8 12% 80 29.93 0.0
04 09:55 S 25 G 33 10.00 Fair and Breezy CLR 80.6 26.6 14% 79 29.93 0.0
04 09:35 S 24 G 33 10.00 Fair and Breezy CLR 80.6 26.6 14% 79 29.93 0.0
04 09:15 S 22 G 30 10.00 Fair and Breezy CLR 78.8 23 12% 77 29.93 0.0
04 08:55 S 23 G 32 10.00 Fair and Breezy CLR 78.8 23 12% 77 29.93 0.0
04 08:35 S 25 G 32 10.00 Fair and Breezy CLR 77 23 13% 76 29.92 0.0
04 08:15 S 23 G 32 10.00 Fair and Breezy CLR 75.2 21.2 13% 75 29.92 0.0
04 07:55 S 24 G 31 10.00 Fair and Breezy CLR 73.4 21.2 14% 29.91 0.0
04 07:35 S 23 10.00 Fair and Breezy CLR 73.4 19.4 13% 29.9 0.0
04 07:15 S 22 G 26 10.00 Fair and Breezy CLR 73.4 19.4 13% 29.89 0.0
04 06:55 S 20 G 29 10.00 Fair CLR 73.4 21.2 14% 29.89 0.0
04 06:35 S 20 G 28 10.00 Fair CLR 73.4 21.2 14% 29.88 0.0
04 06:15 S 21 G 30 10.00 Fair and Breezy CLR 73.4 21.2 14% 29.88 0.0
04 05:55 S 18 G 28 10.00 Fair CLR 73.4 21.2 76.5 72 14% 29.87 0.0
04 05:35 S 22 G 32 10.00 Fair and Breezy CLR 73.4 21.2 14% 29.87 0.0
04 05:15 S 20 G 29 10.00 Fair CLR 73.4 19.4 13% 29.87 0.0
04 04:55 S 21 G 25 10.00 Fair and Breezy CLR 73.4 19.4 13% 29.86 0.0
04 04:35 S 16 G 24 10.00 Fair CLR 73.4 19.4 13% 29.86 0.0
04 04:15 SW 13 G 26 10.00 Fair CLR 73.4 19.4 13% 29.86 0.0
04 03:55 S 14 10.00 Fair CLR 73.4 19.4 13% 29.85 0.0
04 03:35 S 16 G 22 10.00 Fair CLR 73.4 19.4 13% 29.85 0.0
04 03:15 S 16 G 21 10.00 Fair CLR 73.4 17.6 12% 29.85 0.0
04 02:55 S 17 G 23 10.00 Fair CLR 73.4 15.8 11% 29.84 0.0
04 02:35 S 16 10.00 Fair CLR 73.4 15.8 11% 29.84 0.0
04 02:15 S 17 G 25 10.00 Fair CLR 75.2 15.8 10% 75 29.84 0.0
04 01:55 S 20 G 32 10.00 Fair CLR 75.2 15.8 10% 75 29.83 0.0
04 01:35 S 20 G 25 10.00 Fair CLR 73.4 15.8 11% 29.82 0.0
04 01:15 S 18 G 24 10.00 Fair CLR 75.2 17.6 11% 75 29.83 0.0
04 00:55 S 18 G 28 10.00 Fair CLR 75.2 17.6 11% 75 29.82 0.0
04 00:35 S 16 G 24 10.00 Fair CLR 75.2 19.4 12% 75 29.81 0.0
04 00:15 S 18 G 31 10.00 Fair CLR 75.2 19.4 12% 75 29.81 0.0
03 23:55 S 20 10.00 Fair CLR 73.4 21.2 87.4 73.9 14% 29.81 0.0
03 23:35 S 18 10.00 Fair CLR 75.2 23 14% 75 29.81 0.0
03 23:15 S 16 G 22 10.00 Fair CLR 75.2 23 14% 75 29.81 0.0
03 22:55 S 15 10.00 Fair CLR 75.2 23 14% 75 29.81 0.0
03 22:35 S 16 10.00 Fair CLR 75.2 23 14% 75 29.81 0.0
03 22:15 S 15 G 23 10.00 Fair CLR 75.2 23 14% 75 29.81 0.0
03 21:55 S 15 10.00 Fair CLR 75.2 23 14% 75 29.81 0.0
03 21:35 S 14 10.00 Fair CLR 75.2 23 14% 75 29.81 0.0
03 21:15 S 14 10.00 A Few Clouds FEW060 77 21.2 12% 76 29.81 0.0
03 20:55 S 15 10.00 Fair CLR 77 21.2 12% 76 29.8 0.0
03 20:35 S 14 10.00 Fair CLR 77 21.2 12% 76 29.8 0.0
03 20:15 S 18 10.00 Fair CLR 78.8 21.2 12% 77 29.8 0.0
03 19:55 S 18 G 29 10.00 Fair CLR 82.4 21.2 10% 80 29.8 0.0
03 19:35 SW 21 G 28 10.00 Fair and Breezy CLR 84.2 21.2 10% 81 29.8 0.0
03 19:15 SW 18 G 28 10.00 Fair CLR 84.2 21.2 10% 81 29.8 0.0
03 18:55 SW 21 G 28 10.00 Fair and Breezy CLR 86 23 10% 83 29.81 0.0
03 18:35 S 22 G 28 10.00 Fair and Breezy CLR 87.8 21.2 9% 84 29.81 0.0
03 18:15 S 15 G 21 10.00 Fair CLR 84.2 21.2 10% 81 29.82 0.0
03 17:55 SW 16 G 30 10.00 Fair CLR 84.2 21.2 88.5 74.7 10% 81 29.82 0.0
03 17:35 S 20 G 26 10.00 Fair CLR 84.2 21.2 10% 81 29.82 0.0
03 17:15 S 15 10.00 Fair CLR 84.2 23 10% 81 29.83 0.0
03 16:55 S 21 G 30 10.00 Fair and Breezy CLR 84.2 21.2 10% 81 29.84 0.0
03 16:35 S 17 G 25 10.00 Fair CLR 84.2 21.2 10% 81 29.85 0.0
03 16:15 S 22 G 28 10.00 Fair and Breezy CLR 87.8 19.4 8% 84 29.85 0.0
03 15:55 S 15 G 25 10.00 Fair CLR 87.8 21.2 9% 84 29.87 0.0
03 15:35 NE 8 G 16 10.00 Fair CLR 82.4 33.8 17% 80 29.87 0.0
03 15:15 N 9 10.00 Fair CLR 82.4 32 16% 80 29.88 0.0
03 14:55 N 10 G 20 10.00 Fair CLR 80.6 33.8 18% 79 29.89 0.0
03 14:35 N 15 G 22 10.00 Fair CLR 80.6 33.8 18% 79 29.9 0.0
03 14:15 N 13 G 17 10.00 Fair CLR 80.6 32 17% 79 29.91 0.0
03 13:55 N 13 10.00 Fair CLR 80.6 32 17% 79 29.92 0.0
03 13:34 N 12 10.00 Fair CLR 78.8 33.8 20% 78 29.93 0.0
03 13:15 N 12 10.00 Fair CLR 77 33.8 21% 77 29.94 0.0
03 12:55 N 12 10.00 Fair CLR 77 33.8 21% 77 29.95 0.0
03 12:35 N 14 10.00 Fair CLR 77 35.6 22% 77 29.96 0.0
03 12:15 N 12 10.00 Fair CLR 75.2 35.6 24% 76 29.96 0.0
03 11:55 N 14 10.00 Fair CLR 75.2 37.4 75.9 49.3 25% 77 29.97 0.0
03 11:35 N 13 10.00 Fair CLR 75.2 37.4 25% 77 29.97 0.0
03 11:15 N 7 G 16 10.00 Fair CLR 73.4 37.4 27% 29.98 0.0
03 10:55 NE 8 10.00 Fair CLR 71.6 37.4 29% 29.98 0.0
03 10:35 Vrbl 6 10.00 Fair CLR 71.6 35.6 27% 29.98 0.0
03 10:15 N 8 10.00 Fair CLR 71.6 33.8 25% 29.98 0.0
03 09:55 N 6 10.00 Fair CLR 69.8 33.8 27% 29.98 0.0
03 09:35 NW 3 10.00 Fair CLR 68 28.4 23% 29.99 0.0
03 09:15 Vrbl 2 10.00 Fair CLR 66.2 32 28% 29.99 0.0
03 08:55 SW 5 10.00 Fair CLR 64.4 30.2 28% 29.99 0.0
03 08:35 SW 7 10.00 Fair CLR 62.6 28.4 27% 29.99 0.0
03 08:15 S 9 10.00 Fair CLR 60.8 30.2 31% 29.99 0.0
03 07:55 S 5 10.00 Fair CLR 55.4 32 41% 29.99 0.0
03 07:35 S 7 10.00 Fair CLR 53.6 28.4 38% 29.98 0.0
03 07:15 S 9 10.00 Fair CLR 50 30.2 47% 47 29.97 0.0
03 06:55 S 8 10.00 Fair CLR 51.8 30.2 44% 29.97 0.0
03 06:35 S 12 10.00 Fair CLR 50 32 50% 46 29.97 0.0
03 06:15 SE 7 10.00 Fair CLR 53.6 35.6 51% 29.96 0.0
03 05:55 SW 7 10.00 Fair CLR 51.8 35.6 67.3 48.7 54% 29.96 0.0
03 05:35 S 7 10.00 Fair CLR 51.8 35.6 54% 29.96 0.0
03 05:15 S 6 10.00 Fair CLR 51.8 37.4 58% 29.96 0.0
03 04:55 S 6 10.00 Fair CLR 51.8 37.4 58% 29.96 0.0
03 04:35 SE 7 10.00 Fair CLR 50 37.4 62% 48 29.96 0.0
03 04:15 SE 5 10.00 Fair CLR 51.8 37.4 58% 29.95 0.0
03 03:55 S 7 10.00 Fair CLR 53.6 37.4 54% 29.95 0.0
03 03:36 S 7 10.00 Fair CLR 53.6 37.4 54% 29.95 0.0
03 03:15 SW 8 10.00 Fair CLR 53.6 37.4 54% 29.94 0.0
03 02:55 S 9 10.00 Fair CLR 53.6 37.4 54% 29.94 0.0
03 02:35 S 8 10.00 Fair CLR 53.6 39.2 58% 29.94 0.0
03 02:16 S 9 10.00 Fair CLR 55.4 39.2 55% 29.94 0.0
03 01:55 S 7 10.00 Fair CLR 59 37.4 45% 29.94 0.0
03 01:35 SW 3 10.00 Fair CLR 59 39.2 48% 29.94 0.0
03 01:15 SW 5 10.00 Fair CLR 59 39.2 48% 29.94 0.0
03 00:55 SW 3 10.00 Fair CLR 62.6 37.4 39% 29.93 0.0
03 00:35 W 5 10.00 Fair CLR 62.6 35.6 37% 29.92 0.0
03 00:15 W 3 10.00 Fair CLR 66.2 33.8 30% 29.92 0.0
02 23:55 SW 5 10.00 Fair CLR 66.2 35.6 88.2 64.6 32% 29.92 0.0
02 23:35 SW 7 10.00 Fair CLR 66.2 37.4 35% 29.92 0.0
02 23:15 SW 6 10.00 Fair CLR 66.2 39.2 37% 29.91 0.0
02 22:56 S 6 10.00 Fair CLR 66.2 39.2 37% 29.92 0.0
02 22:35 SW 5 10.00 Fair CLR 68 39.2 35% 29.92 0.0
02 22:15 SW 7 10.00 Fair CLR 69.8 39.2 33% 29.92 0.0
02 21:55 SW 7 10.00 Fair CLR 69.8 37.4 31% 29.91 0.0
02 21:35 SW 8 10.00 Fair CLR 68 41 38% 29.9 0.0
02 21:15 N 6 10.00 Fair CLR 71.6 37.4 29% 29.89 0.0
02 20:55 NW 6 10.00 Fair CLR 69.8 39.2 33% 29.89 0.0
02 20:35 NE 7 10.00 Fair CLR 71.6 39.2 31% 29.88 0.0
02 20:15 N 8 10.00 Fair CLR 73.4 42.8 33% 29.87 0.0
02 19:55 NE 12 10.00 Fair CLR 73.4 41 31% 29.87 0.0
02 19:35 N 15 G 25 10.00 Fair CLR 75.2 37.4 25% 77 29.88 0.0
02 19:15 N 14 10.00 Fair CLR 77 39.2 26% 77 29.88 0.0
02 18:55 S 6 10.00 Fair CLR 84.2 19.4 9% 81 29.88 0.0
02 18:35 S 16 G 28 10.00 Fair CLR 86 19.4 8% 83 29.87 0.0
02 18:15 S 24 G 29 10.00 Fair and Breezy CLR 87.8 19.4 8% 84 29.87 0.0
02 17:55 S 20 G 29 10.00 Fair CLR 86 19.4 88.2 81.1 8% 83 29.87 0.0
02 17:35 S 18 G 29 10.00 Fair CLR 86 19.4 8% 83 29.87 0.0
02 17:15 S 20 G 28 10.00 Fair CLR 86 21.2 9% 83 29.88 0.0
02 16:55 S 23 G 28 10.00 Fair and Breezy CLR 86 23 10% 83 29.88 0.0
02 16:35 S 15 G 20 10.00 Fair CLR 84.2 24.8 11% 81 29.89 0.0
02 16:15 SW 14 10.00 Fair CLR 84.2 24.8 11% 81 29.89 0.0
02 15:55 S 21 G 26 10.00 Fair and Breezy CLR 86 24.8 11% 83 29.89 0.0
02 15:35 S 17 G 24 10.00 Fair CLR 86 26.6 11% 83 29.9 0.0
02 15:15 SW 10 G 25 10.00 Fair CLR 84.2 26.6 12% 81 29.91 0.0
02 14:55 SW 14 G 21 10.00 Fair CLR 86 28.4 12% 83 29.91 0.0
02 14:35 SW 12 G 28 10.00 Fair CLR 86 28.4 12% 83 29.91 0.0
02 14:15 SW 9 10.00 A Few Clouds FEW120 84.2 28.4 13% 81 29.92 0.0
02 13:56 S 26 G 35 10.00 A Few Clouds and Windy FEW120 86 30.2 13% 83 29.92 0.0
02 13:35 SW 20 G 25 10.00 Fair CLR 84.2 30.2 14% 81 29.93 0.0
02 13:15 SW 13 G 23 10.00 A Few Clouds FEW110 82.4 30.2 15% 80 29.94 0.0
02 12:55 S 14 G 25 10.00 Fair CLR 84.2 32 15% 81 29.95 0.0
02 12:35 S 17 G 36 10.00 Fair CLR 84.2 33.8 16% 81 29.95 0.0
02 12:15 S 18 G 32 10.00 Fair CLR 82.4 35.6 19% 80 29.96 0.0
02 11:55 S 29 G 33 10.00 Fair and Windy CLR 82.4 35.6 83.1 71.4 19% 80 29.95 0.0
02 11:35 S 22 G 32 10.00 Fair and Breezy CLR 82.4 33.8 17% 80 29.96 0.0
02 11:15 SW 21 G 31 10.00 Fair and Breezy CLR 80.6 35.6 20% 79 29.96 0.0
02 10:55 SW 18 G 28 10.00 Partly Cloudy SCT090 80.6 35.6 20% 79 29.96 0.0
02 10:35 SW 24 G 33 10.00 Mostly Cloudy and Breezy BKN090 80.6 35.6 20% 79 29.96 0.0
02 10:15 S 28 G 36 10.00 A Few Clouds and Windy FEW090 80.6 39.2 23% 79 29.96 0.0
02 09:55 S 22 G 33 10.00 Fair and Breezy CLR 80.6 39.2 23% 79 29.96 0.0
02 09:35 S 28 G 35 10.00 Fair and Windy CLR 78.8 41 26% 78 29.96 0.0
02 09:15 S 22 G 38 10.00 Fair and Breezy CLR 78.8 39.2 24% 78 29.96 0.0
02 08:55 S 17 G 31 10.00 Fair CLR 77 39.2 26% 77 29.96 0.0
02 08:35 S 22 G 31 10.00 Fair and Breezy CLR 75.2 39.2 27% 77 29.95 0.0
02 08:15 S 22 G 30 10.00 Fair and Breezy CLR 75.2 39.2 27% 77 29.94 0.0
02 07:55 S 20 G 32 10.00 Fair CLR 73.4 41 31% 29.94 0.0
02 07:35 S 24 G 36 10.00 Fair and Breezy CLR 73.4 39.2 29% 29.93 0.0
02 07:15 S 29 G 37 10.00 Fair and Windy CLR 73.4 39.2 29% 29.93 0.0
02 06:55 S 23 G 32 10.00 Fair and Breezy CLR 73.4 41 31% 29.93 0.0
02 06:35 S 23 G 29 10.00 Fair and Breezy CLR 73.4 41 31% 29.93 0.0
02 06:15 S 17 10.00 Fair CLR 71.6 42.8 36% 29.93 0.0
02 05:55 S 17 G 33 10.00 Fair CLR 73.4 41 74.8 70.5 31% 29.93 0.0
02 05:35 S 28 G 33 10.00 Fair and Windy CLR 75.2 41 29% 77 29.92 0.0
02 05:15 S 26 G 36 10.00 Fair and Windy CLR 75.2 41 29% 77 29.92 0.0
02 04:55 S 22 G 32 10.00 Fair and Breezy CLR 75.2 41 29% 77 29.92 0.0
02 04:35 S 21 G 26 10.00 Fair and Breezy CLR 73.4 41 31% 29.92 0.0
02 04:15 S 18 G 25 10.00 Fair CLR 75.2 39.2 27% 77 29.92 0.0
02 03:55 S 16 G 23 10.00 Fair CLR 73.4 39.2 29% 29.93 0.0
02 03:35 S 15 G 21 10.00 Fair CLR 71.6 39.2 31% 29.93 0.0
02 03:15 S 15 10.00 Fair CLR 71.6 39.2 31% 29.94 0.0
02 02:55 S 18 G 23 10.00 Fair CLR 71.6 41 33% 29.94 0.0
02 02:35 S 13 10.00 Fair CLR 71.6 42.8 36% 29.94 0.0
02 02:15 S 21 10.00 Fair and Breezy CLR 73.4 42.8 33% 29.93 0.0
02 01:55 S 18 10.00 Fair CLR 73.4 42.8 33% 29.93 0.0
02 01:36 S 16 G 28 10.00 Fair CLR 75.2 42.8 31% 77 29.93 0.0
02 01:15 S 18 G 25 10.00 Fair CLR 73.4 42.8 33% 29.93 0.0
02 00:55 S 21 10.00 Fair and Breezy CLR 75.2 42.8 31% 77 29.92 0.0
02 00:35 S 22 G 31 10.00 Fair and Breezy CLR 75.2 42.8 31% 77 29.92 0.0
02 00:16 S 17 10.00 Fair CLR 73.4 41 31% 29.92 0.0
01 23:55 S 14 10.00 Fair CLR 71.6 39.2 84.9 70.9 31% 29.93 0.0
01 23:35 S 13 10.00 Fair CLR 73.4 39.2 29% 29.93 0.0
01 23:15 S 13 10.00 Fair CLR 71.6 41 33% 29.93 0.0
01 22:55 S 14 10.00 Fair CLR 71.6 39.2 31% 29.93 0.0
01 22:36 S 15 10.00 Fair CLR 73.4 41 31% 29.93 0.0
01 22:15 S 12 10.00 Fair CLR 73.4 42.8 33% 29.93 0.0
01 21:55 S 14 10.00 Fair CLR 73.4 42.8 33% 29.93 0.0
01 21:35 S 13 10.00 Fair CLR 73.4 44.6 36% 29.92 0.0
01 21:15 S 14 10.00 Fair CLR 73.4 46.4 38% 29.92 0.0
01 20:55 S 14 10.00 Fair CLR 75.2 46.4 36% 77 29.91 0.0
01 20:35 S 13 10.00 Fair CLR 77 48.2 36% 78 29.9 0.0
01 20:15 S 20 G 24 10.00 Fair CLR 78.8 46.4 32% 79 29.9 0.0
01 19:55 S 17 10.00 Fair CLR 78.8 46.4 32% 79 29.9 0.0
01 19:35 S 18 G 24 10.00 Fair CLR 80.6 46.4 30% 80 29.9 0.0
01 19:16 S 18 G 30 10.00 Fair CLR 82.4 44.6 26% 81 29.9 0.0
Date Time (mdt) Wind (mph) Vis. (mi.) Weather Sky Cond. Air Dwpt Max. Min. Relative Humidity Wind Chill (°F) Heat Index (°F) altimeter (in) sea level (mb) 1 hr 3 hr 6 hr
6 hour
Temperature (ºF) Pressure Precipitation (in)